createdAt,value
2018-10-05T00:02:23.972Z,18.60
2018-10-05T00:04:52.281Z,14.17
2018-10-05T00:07:20.513Z,17.67
2018-10-05T00:09:48.909Z,14.33
2018-10-05T00:12:17.191Z,18.97
2018-10-05T00:14:45.631Z,19.23
2018-10-05T00:17:13.962Z,16.40
2018-10-05T00:19:42.383Z,13.37
2018-10-05T00:22:10.817Z,14.67
2018-10-05T00:24:39.319Z,11.07
2018-10-05T00:27:07.607Z,20.47
2018-10-05T00:29:35.989Z,14.53
2018-10-05T00:32:04.287Z,16.33
2018-10-05T00:34:32.601Z,15.80
2018-10-05T00:37:00.862Z,13.43
2018-10-05T00:39:29.263Z,12.57
2018-10-05T00:41:57.585Z,18.57
2018-10-05T00:44:26.119Z,15.10
2018-10-05T00:46:54.510Z,24.70
2018-10-05T00:49:22.939Z,19.63
2018-10-05T00:51:51.243Z,15.10
2018-10-05T00:54:20.161Z,18.83
2018-10-05T00:56:48.578Z,19.23
2018-10-05T00:59:16.892Z,21.23
2018-10-05T01:01:45.384Z,18.97
2018-10-05T01:04:13.650Z,17.13
2018-10-05T01:06:41.964Z,17.23
2018-10-05T01:09:11.302Z,13.70
2018-10-05T01:11:39.571Z,17.53
2018-10-05T01:14:07.889Z,15.87
2018-10-05T01:16:36.259Z,17.17
2018-10-05T01:19:04.633Z,16.30
2018-10-05T01:21:33.040Z,17.80
2018-10-05T01:24:01.369Z,16.60
2018-10-05T01:26:29.631Z,18.30
2018-10-05T01:28:58.536Z,15.57
2018-10-05T01:31:26.867Z,16.57
2018-10-05T01:33:55.161Z,17.73
2018-10-05T01:36:23.416Z,16.20
2018-10-05T01:38:51.769Z,17.60
2018-10-05T01:41:20.033Z,16.53
2018-10-05T01:43:48.612Z,15.47
2018-10-05T01:46:16.850Z,16.70
2018-10-05T01:48:45.275Z,15.10
2018-10-05T01:51:13.596Z,15.13
2018-10-05T01:53:41.880Z,23.07
2018-10-05T01:56:10.265Z,17.80
2018-10-05T01:58:38.508Z,19.43
2018-10-05T02:01:06.842Z,15.33
2018-10-05T02:03:35.184Z,16.33
2018-10-05T02:06:03.546Z,19.30
2018-10-05T02:11:09.561Z,17.83
2018-10-05T02:13:38.030Z,18.97
2018-10-05T02:16:06.611Z,17.27
2018-10-05T02:18:35.857Z,16.70
2018-10-05T02:21:04.180Z,19.80
2018-10-05T02:23:32.753Z,19.23
2018-10-05T02:26:01.008Z,16.70
2018-10-05T02:28:29.250Z,16.50
2018-10-05T02:30:57.720Z,19.20
2018-10-05T02:33:26.758Z,19.40
2018-10-05T02:35:55.055Z,15.70
2018-10-05T02:38:23.340Z,21.63
2018-10-05T02:40:51.957Z,20.07
2018-10-05T02:43:20.305Z,21.23
2018-10-05T02:45:48.600Z,19.37
2018-10-05T02:48:17.421Z,19.53
2018-10-05T02:50:45.836Z,18.17
2018-10-05T02:53:14.116Z,17.83
2018-10-05T02:55:42.498Z,18.17
2018-10-05T02:58:11.010Z,20.33
2018-10-05T03:00:50.634Z,19.40
2018-10-05T03:03:19.010Z,17.93
2018-10-05T03:05:47.468Z,17.63
2018-10-05T03:08:15.778Z,20.10
2018-10-05T03:10:44.150Z,19.57
2018-10-05T03:13:12.414Z,19.40
2018-10-05T03:15:40.715Z,14.33
2018-10-05T03:18:08.990Z,16.37
2018-10-05T03:20:37.275Z,21.00
2018-10-05T03:23:05.581Z,16.53
2018-10-05T03:25:33.903Z,16.57
2018-10-05T03:28:02.284Z,17.43
2018-10-05T03:30:30.571Z,19.77
2018-10-05T03:32:58.863Z,20.80
2018-10-05T03:35:27.174Z,20.80
2018-10-05T03:37:55.687Z,15.63
2018-10-05T03:40:24.031Z,17.60
2018-10-05T03:42:52.425Z,20.67
2018-10-05T03:45:20.837Z,22.93
2018-10-05T03:47:49.184Z,20.30
2018-10-05T03:50:17.550Z,19.53
2018-10-05T03:52:45.884Z,18.57
2018-10-05T03:55:14.190Z,19.97
2018-10-05T03:57:42.510Z,20.97
2018-10-05T04:00:10.758Z,21.90
2018-10-05T04:02:39.108Z,17.83
2018-10-05T04:05:07.441Z,21.87
2018-10-05T04:07:35.729Z,22.60
2018-10-05T04:10:04.172Z,24.10
2018-10-05T04:12:32.585Z,21.20
2018-10-05T04:15:00.864Z,19.50
2018-10-05T04:17:29.256Z,21.13
2018-10-05T04:19:57.574Z,18.57
2018-10-05T04:22:29.301Z,19.63
2018-10-05T04:24:57.747Z,16.33
2018-10-05T04:27:26.471Z,24.17
2018-10-05T04:29:55.341Z,19.13
2018-10-05T04:32:23.592Z,20.77
2018-10-05T04:34:51.926Z,24.70
2018-10-05T04:37:20.191Z,19.20
2018-10-05T04:39:48.535Z,20.73
2018-10-05T04:42:16.832Z,19.93
2018-10-05T04:44:45.180Z,22.63
2018-10-05T04:47:13.454Z,20.53
2018-10-05T04:49:41.949Z,19.20
2018-10-05T04:52:10.338Z,26.87
2018-10-05T04:54:38.795Z,17.90
2018-10-05T04:57:07.334Z,18.93
2018-10-05T04:59:35.848Z,20.47
2018-10-05T05:02:04.136Z,20.20
2018-10-05T05:04:32.770Z,21.47
2018-10-05T05:07:01.380Z,22.23
2018-10-05T05:09:29.673Z,21.20
2018-10-05T05:11:58.031Z,21.20
2018-10-05T05:14:26.521Z,22.10
2018-10-05T05:16:55.025Z,27.50
2018-10-05T05:19:23.451Z,24.77
2018-10-05T05:21:51.798Z,30.87
2018-10-05T05:24:20.236Z,27.63
2018-10-05T05:26:48.645Z,31.33
2018-10-05T05:29:17.069Z,30.90
2018-10-05T05:31:45.456Z,26.17
2018-10-05T05:34:13.741Z,22.63
2018-10-05T05:36:42.162Z,22.23
2018-10-05T05:39:10.509Z,26.93
2018-10-05T05:41:38.971Z,20.03
2018-10-05T05:44:07.389Z,20.93
2018-10-05T05:46:35.696Z,19.40
2018-10-05T05:49:04.008Z,18.07
2018-10-05T05:51:32.322Z,25.07
2018-10-05T05:54:00.647Z,23.03
2018-10-05T05:56:29.047Z,20.97
2018-10-05T05:58:57.382Z,21.03
2018-10-05T06:01:25.666Z,22.13
2018-10-05T06:03:54.086Z,25.40
2018-10-05T06:06:22.462Z,21.97
2018-10-05T06:08:50.902Z,29.93
2018-10-05T06:11:19.214Z,22.17
2018-10-05T06:13:47.498Z,25.03
2018-10-05T06:16:16.097Z,19.10
2018-10-05T06:18:44.397Z,20.73
2018-10-05T06:21:12.812Z,21.47
2018-10-05T06:23:41.124Z,19.00
2018-10-05T06:26:10.442Z,20.37
2018-10-05T06:28:38.706Z,22.37
2018-10-05T06:31:07.158Z,19.07
2018-10-05T06:33:35.415Z,18.37
2018-10-05T06:36:03.802Z,19.57
2018-10-05T06:38:33.172Z,22.73
2018-10-05T06:41:01.719Z,20.30
2018-10-05T06:43:30.353Z,20.37
2018-10-05T06:45:58.756Z,23.67
2018-10-05T06:48:27.296Z,23.70
2018-10-05T06:50:55.711Z,27.07
2018-10-05T06:53:24.267Z,22.53
2018-10-05T06:55:52.448Z,22.93
2018-10-05T06:58:21.247Z,19.90
2018-10-05T07:00:49.650Z,24.13
2018-10-05T07:03:18.127Z,22.27
2018-10-05T07:05:46.759Z,21.10
2018-10-05T07:08:15.262Z,21.47
2018-10-05T07:10:43.685Z,24.23
2018-10-05T07:13:12.045Z,33.53
2018-10-05T07:15:40.548Z,30.17
2018-10-05T07:18:08.835Z,19.33
2018-10-05T07:20:37.069Z,19.23
2018-10-05T07:23:05.384Z,19.40
2018-10-05T07:25:33.629Z,21.77
2018-10-05T07:28:02.025Z,22.27
2018-10-05T07:30:30.254Z,22.50
2018-10-05T07:32:58.499Z,22.23
2018-10-05T07:35:26.984Z,23.57
2018-10-05T07:37:55.294Z,21.23
2018-10-05T07:40:23.811Z,21.10
2018-10-05T07:42:52.162Z,23.80
2018-10-05T07:45:20.420Z,23.33
2018-10-05T07:47:48.794Z,20.57
2018-10-05T07:50:17.240Z,21.80
2018-10-05T07:52:45.612Z,25.83
2018-10-05T07:55:14.014Z,22.63
2018-10-05T07:57:42.480Z,23.27
2018-10-05T08:00:10.868Z,22.37
2018-10-05T08:02:39.318Z,24.60
2018-10-05T08:05:07.590Z,26.80
2018-10-05T08:07:35.903Z,19.47
2018-10-05T08:10:04.226Z,21.00
2018-10-05T08:12:33.036Z,25.97
2018-10-05T08:15:01.353Z,25.30
2018-10-05T08:17:29.664Z,22.17
2018-10-05T08:19:58.260Z,24.83
2018-10-05T08:22:26.614Z,20.00
2018-10-05T08:24:54.895Z,21.13
2018-10-05T08:27:23.180Z,20.03
2018-10-05T08:29:52.480Z,18.57
2018-10-05T08:32:20.755Z,20.23
2018-10-05T08:34:49.083Z,21.23
2018-10-05T08:37:17.632Z,21.73
2018-10-05T08:39:46.648Z,21.43
2018-10-05T08:42:14.862Z,22.33
2018-10-05T08:44:43.190Z,21.93
2018-10-05T08:47:11.647Z,19.63
2018-10-05T08:49:39.942Z,24.87
2018-10-05T08:52:08.315Z,18.37
2018-10-05T08:54:37.079Z,20.83
2018-10-05T08:57:05.468Z,20.13
2018-10-05T08:59:33.730Z,20.73
2018-10-05T09:02:02.134Z,24.03
2018-10-05T09:04:30.431Z,19.67
2018-10-05T09:06:58.715Z,21.33
2018-10-05T09:09:28.760Z,23.03
2018-10-05T09:11:57.012Z,14.87
2018-10-05T09:14:25.611Z,19.90
2018-10-05T09:16:53.972Z,26.83
2018-10-05T09:19:22.428Z,26.00
2018-10-05T09:21:50.881Z,22.30
2018-10-05T09:24:19.269Z,19.60
2018-10-05T09:26:47.603Z,21.13
2018-10-05T09:29:16.401Z,23.80
2018-10-05T09:31:44.696Z,18.03
2018-10-05T09:34:13.024Z,23.93
2018-10-05T09:36:41.414Z,18.33
2018-10-05T09:39:09.717Z,16.80
2018-10-05T09:41:37.983Z,18.23
2018-10-05T09:44:06.461Z,19.73
2018-10-05T09:46:34.732Z,21.47
2018-10-05T09:49:03.062Z,18.33
2018-10-05T09:51:31.315Z,21.80
2018-10-05T09:53:59.700Z,22.93
2018-10-05T09:56:28.218Z,19.20
2018-10-05T09:58:56.526Z,17.13
2018-10-05T10:01:30.022Z,16.13
2018-10-05T10:03:58.396Z,17.80
2018-10-05T10:06:26.799Z,18.20
2018-10-05T10:08:55.130Z,18.83
2018-10-05T10:11:23.460Z,19.57
2018-10-05T10:13:51.815Z,15.57
2018-10-05T10:16:20.309Z,21.07
2018-10-05T10:18:49.402Z,17.93
2018-10-05T10:21:17.724Z,16.93
2018-10-05T10:23:46.031Z,16.40
2018-10-05T10:26:14.422Z,16.87
2018-10-05T10:28:42.870Z,19.03
2018-10-05T10:31:11.253Z,15.10
2018-10-05T10:33:39.567Z,17.10
2018-10-05T10:36:07.816Z,16.73
2018-10-05T10:38:36.695Z,17.67
2018-10-05T10:41:05.065Z,16.80
2018-10-05T10:43:33.434Z,11.60
2018-10-05T10:46:01.718Z,15.53
2018-10-05T10:48:30.073Z,15.77
2018-10-05T10:50:58.387Z,17.30
2018-10-05T10:53:27.026Z,15.60
2018-10-05T10:55:55.630Z,16.50
2018-10-05T10:58:23.888Z,14.30
2018-10-05T11:00:52.804Z,16.63
2018-10-05T11:03:21.053Z,15.90
2018-10-05T11:05:49.355Z,14.30
2018-10-05T11:08:17.634Z,14.60
2018-10-05T11:10:46.003Z,17.33
2018-10-05T11:13:14.492Z,14.30
2018-10-05T11:15:42.802Z,17.50
2018-10-05T11:18:11.095Z,15.13
2018-10-05T11:20:39.440Z,17.93
2018-10-05T11:23:07.771Z,14.70
2018-10-05T11:25:36.023Z,18.20
2018-10-05T11:28:04.303Z,17.83
2018-10-05T11:30:32.711Z,14.53
2018-10-05T11:33:00.974Z,17.57
2018-10-05T11:35:29.315Z,15.70
2018-10-05T11:37:57.633Z,15.65
2018-10-05T11:40:26.026Z,13.58
2018-10-05T11:42:54.342Z,12.33
2018-10-05T11:45:22.692Z,14.60
2018-10-05T11:47:51.088Z,12.35
2018-10-05T11:50:19.413Z,12.53
2018-10-05T11:52:47.801Z,13.83
2018-10-05T11:55:16.176Z,15.58
2018-10-05T11:57:44.463Z,13.70
2018-10-05T12:00:16.584Z,12.50
2018-10-05T12:02:45.024Z,13.15
2018-10-05T12:05:13.318Z,13.03
2018-10-05T12:07:41.698Z,17.10
2018-10-05T12:10:10.009Z,24.60
2018-10-05T12:12:38.326Z,19.55
2018-10-05T12:15:07.050Z,16.30
2018-10-05T12:17:35.407Z,14.20
2018-10-05T12:20:03.848Z,10.95
2018-10-05T12:22:32.312Z,14.25
2018-10-05T12:25:00.599Z,10.25
2018-10-05T12:27:29.140Z,10.05
2018-10-05T12:29:57.506Z,12.70
2018-10-05T12:32:25.735Z,11.97
2018-10-05T12:34:54.178Z,13.22
2018-10-05T12:37:22.467Z,12.90
2018-10-05T12:39:50.755Z,11.60
2018-10-05T12:42:19.052Z,11.88
2018-10-05T12:44:47.347Z,10.75
2018-10-05T12:47:15.679Z,11.75
2018-10-05T12:49:44.030Z,10.28
2018-10-05T12:52:12.537Z,9.33
2018-10-05T12:54:40.858Z,10.08
2018-10-05T12:57:09.142Z,9.10
2018-10-05T12:59:37.443Z,12.18
2018-10-05T13:02:05.798Z,13.18
2018-10-05T13:04:34.091Z,9.18
2018-10-05T13:07:02.448Z,8.28
2018-10-05T13:09:31.909Z,7.97
2018-10-05T13:12:00.152Z,7.67
2018-10-05T13:14:28.438Z,8.13
2018-10-05T13:16:56.759Z,11.50
2018-10-05T13:19:25.018Z,9.00
2018-10-05T13:21:53.351Z,8.55
2018-10-05T13:24:21.632Z,9.33
2018-10-05T13:26:49.861Z,6.40
2018-10-05T13:29:18.150Z,7.30
2018-10-05T13:31:46.452Z,7.17
2018-10-05T13:34:14.911Z,6.00
2018-10-05T13:36:43.216Z,6.58
2018-10-05T13:39:12.112Z,5.40
2018-10-05T13:41:40.872Z,4.53
2018-10-05T13:44:09.040Z,5.70
2018-10-05T13:46:37.338Z,6.30
2018-10-05T13:49:06.442Z,3.58
2018-10-05T13:51:35.917Z,4.95
2018-10-05T13:54:04.636Z,4.08
2018-10-05T13:56:32.960Z,4.40
2018-10-05T13:59:01.410Z,3.77
2018-10-05T14:01:29.886Z,6.15
2018-10-05T14:03:58.193Z,3.62
2018-10-05T14:06:26.479Z,3.80
2018-10-05T14:08:54.738Z,5.42
2018-10-05T14:11:23.196Z,5.87
2018-10-05T14:13:51.795Z,3.77
2018-10-05T14:16:20.182Z,3.45
2018-10-05T14:18:48.418Z,2.50
2018-10-05T14:21:16.781Z,3.40
2018-10-05T14:23:45.050Z,7.05
2018-10-05T14:26:13.406Z,3.83
2018-10-05T14:28:41.806Z,6.50
2018-10-05T14:31:10.060Z,4.78
2018-10-05T14:33:38.348Z,4.33
2018-10-05T14:36:06.737Z,4.20
2018-10-05T14:38:35.047Z,8.08
2018-10-05T14:41:03.338Z,6.75
2018-10-05T14:43:31.899Z,3.35
2018-10-05T14:46:00.270Z,4.75
2018-10-05T14:48:28.524Z,6.40
2018-10-05T14:50:56.786Z,3.75
2018-10-05T14:53:25.090Z,5.08
2018-10-05T14:55:53.377Z,4.60
2018-10-05T14:58:21.648Z,10.45
2018-10-05T15:00:50.117Z,5.08
2018-10-05T15:03:18.430Z,4.37
2018-10-05T15:05:46.849Z,4.15
2018-10-05T15:08:15.104Z,3.72
2018-10-05T15:10:43.451Z,4.22
2018-10-05T15:13:11.731Z,4.12
2018-10-05T15:15:40.024Z,3.98
2018-10-05T15:18:08.299Z,4.47
2018-10-05T15:20:36.626Z,3.55
2018-10-05T15:23:04.939Z,3.58
2018-10-05T15:25:33.204Z,5.05
2018-10-05T15:28:01.650Z,3.25
2018-10-05T15:30:30.124Z,4.08
2018-10-05T15:32:58.416Z,5.83
2018-10-05T15:35:26.772Z,4.37
2018-10-05T15:37:55.032Z,3.95
2018-10-05T15:40:23.301Z,6.42
2018-10-05T15:42:51.718Z,5.03
2018-10-05T15:45:20.027Z,6.28
2018-10-05T15:47:48.300Z,3.47
2018-10-05T15:50:16.562Z,4.12
2018-10-05T15:52:44.851Z,6.92
2018-10-05T15:55:13.099Z,4.20
2018-10-05T15:57:41.395Z,5.12
2018-10-05T16:00:09.958Z,5.92
2018-10-05T16:02:38.250Z,4.50
2018-10-05T16:05:06.892Z,4.80
2018-10-05T16:07:35.189Z,3.70
2018-10-05T16:10:03.497Z,5.83
2018-10-05T16:12:31.894Z,5.15
2018-10-05T16:15:00.186Z,4.85
2018-10-05T16:17:28.585Z,5.78
2018-10-05T16:19:56.872Z,4.83
2018-10-05T16:22:25.274Z,3.22
2018-10-05T16:24:53.623Z,5.95
2018-10-05T16:27:21.896Z,4.53
2018-10-05T16:29:50.223Z,4.33
2018-10-05T16:32:18.549Z,6.42
2018-10-05T16:34:46.844Z,5.37
2018-10-05T16:37:15.137Z,4.80
2018-10-05T16:39:43.454Z,8.93
2018-10-05T16:42:11.804Z,7.58
2018-10-05T16:44:40.054Z,3.52
2018-10-05T16:47:08.327Z,4.27
2018-10-05T16:49:36.611Z,5.57
2018-10-05T16:52:04.916Z,6.90
2018-10-05T16:54:33.307Z,3.33
2018-10-05T16:57:01.646Z,6.77
2018-10-05T16:59:29.954Z,4.60
2018-10-05T17:01:58.291Z,3.27
2018-10-05T17:04:26.650Z,6.13
2018-10-05T17:06:54.996Z,7.10
2018-10-05T17:09:23.328Z,3.93
2018-10-05T17:11:51.616Z,7.60
2018-10-05T17:14:19.928Z,4.10
2018-10-05T17:16:48.224Z,4.53
2018-10-05T17:19:16.661Z,6.67
2018-10-05T17:21:45.001Z,6.80
2018-10-05T17:24:13.252Z,5.47
2018-10-05T17:26:41.548Z,4.00
2018-10-05T17:29:09.914Z,6.30
2018-10-05T17:31:38.287Z,6.53
2018-10-05T17:34:06.754Z,6.03
2018-10-05T17:36:35.063Z,8.37
2018-10-05T17:39:03.512Z,9.23
2018-10-05T17:41:31.970Z,10.53
2018-10-05T17:44:00.285Z,6.77
2018-10-05T17:46:28.872Z,8.80
2018-10-05T17:48:57.175Z,9.27
2018-10-05T17:51:25.481Z,8.97
2018-10-05T17:53:53.749Z,12.00
2018-10-05T17:56:22.184Z,9.70
2018-10-05T17:58:50.540Z,11.40
2018-10-05T18:01:18.846Z,9.93
2018-10-05T18:03:47.296Z,9.17
2018-10-05T18:06:15.695Z,10.30
2018-10-05T18:08:44.148Z,10.40
2018-10-05T18:11:12.424Z,8.63
2018-10-05T18:13:40.722Z,7.90
2018-10-05T18:16:09.007Z,8.10
2018-10-05T18:18:37.376Z,7.97
2018-10-05T18:21:05.646Z,7.73
2018-10-05T18:23:34.063Z,9.03
2018-10-05T18:26:02.373Z,6.90
2018-10-05T18:28:30.669Z,10.43
2018-10-05T18:30:59.017Z,9.13
2018-10-05T18:33:27.260Z,8.63
2018-10-05T18:35:55.588Z,10.50
2018-10-05T18:38:23.893Z,9.33
2018-10-05T18:40:52.396Z,10.83
2018-10-05T18:43:20.687Z,12.10
2018-10-05T18:45:48.990Z,12.57
2018-10-05T18:48:17.253Z,10.17
2018-10-05T18:50:45.613Z,10.30
2018-10-05T18:53:14.131Z,8.70
2018-10-05T18:55:42.450Z,6.77
2018-10-05T18:58:10.828Z,9.47
2018-10-05T19:00:39.117Z,9.30
2018-10-05T19:03:07.537Z,6.90
2018-10-05T19:05:35.840Z,9.97
2018-10-05T19:08:04.114Z,7.00
2018-10-05T19:10:32.516Z,10.80
2018-10-05T19:13:00.867Z,13.77
2018-10-05T19:15:29.165Z,12.50
2018-10-05T19:17:57.541Z,24.00
2018-10-05T19:20:26.012Z,11.87
2018-10-05T19:22:54.303Z,8.77
2018-10-05T19:25:22.640Z,9.20
2018-10-05T19:27:50.940Z,10.33
2018-10-05T19:30:19.243Z,9.27
2018-10-05T19:32:47.589Z,10.17
2018-10-05T19:35:16.128Z,10.33
2018-10-05T19:37:44.448Z,9.77
2018-10-05T19:40:12.735Z,9.63
2018-10-05T19:42:41.024Z,10.30
2018-10-05T19:45:09.480Z,10.93
2018-10-05T19:47:37.803Z,12.23
2018-10-05T19:50:06.293Z,12.50
2018-10-05T19:52:34.589Z,9.33
2018-10-05T19:55:02.910Z,9.03
2018-10-05T19:57:31.295Z,10.67
2018-10-05T19:59:59.671Z,11.27
2018-10-05T20:02:28.023Z,13.07
2018-10-05T20:04:56.293Z,13.23
2018-10-05T20:07:24.606Z,11.53
2018-10-05T20:09:52.955Z,10.93
2018-10-05T20:12:21.179Z,10.63
2018-10-05T20:14:49.484Z,11.47
2018-10-05T20:17:17.870Z,12.37
2018-10-05T20:19:46.121Z,10.73
2018-10-05T20:22:14.445Z,11.53
2018-10-05T20:24:42.792Z,12.43
2018-10-05T20:27:11.440Z,11.93
2018-10-05T20:29:39.684Z,12.50
2018-10-05T20:32:08.028Z,11.43
2018-10-05T20:34:36.328Z,10.63
2018-10-05T20:37:04.820Z,12.43
2018-10-05T20:39:32.887Z,12.63
2018-10-05T20:42:01.144Z,14.37
2018-10-05T20:44:29.383Z,13.67
2018-10-05T20:46:57.735Z,12.40
2018-10-05T20:49:26.171Z,12.97
2018-10-05T20:51:54.462Z,17.93
2018-10-05T20:54:22.695Z,12.73
2018-10-05T20:56:50.962Z,14.53
2018-10-05T20:59:19.311Z,12.53
2018-10-05T21:01:47.657Z,15.50
2018-10-05T21:04:16.060Z,11.37
2018-10-05T21:06:44.398Z,13.67
2018-10-05T21:09:12.639Z,13.93
2018-10-05T21:11:40.966Z,13.80
2018-10-05T21:14:09.483Z,11.87
2018-10-05T21:16:37.745Z,11.50
2018-10-05T21:19:06.557Z,16.77
2018-10-05T21:21:34.839Z,13.37
2018-10-05T21:24:03.177Z,11.97
2018-10-05T21:26:31.434Z,13.03
2018-10-05T21:28:59.956Z,14.30
2018-10-05T21:31:28.248Z,13.83
2018-10-05T21:33:56.547Z,16.53
2018-10-05T21:36:24.851Z,13.33
2018-10-05T21:38:53.185Z,15.70
2018-10-05T21:41:21.438Z,14.97
2018-10-05T21:43:49.690Z,13.10
2018-10-05T21:46:17.943Z,14.27
2018-10-05T21:48:46.211Z,16.30
2018-10-05T21:51:14.433Z,14.00
2018-10-05T21:53:43.201Z,14.80
2018-10-05T21:56:12.174Z,13.57
2018-10-05T21:58:40.574Z,14.53
2018-10-05T22:01:09.062Z,14.63
2018-10-05T22:03:37.936Z,14.30
2018-10-05T22:06:06.442Z,11.73
2018-10-05T22:08:34.728Z,12.93
2018-10-05T22:11:03.141Z,13.10
2018-10-05T22:13:31.530Z,14.10
2018-10-05T22:16:00.344Z,12.53
2018-10-05T22:18:28.660Z,13.50
2018-10-05T22:20:56.978Z,13.87
2018-10-05T22:23:25.277Z,13.33
2018-10-05T22:25:53.582Z,13.77
2018-10-05T22:28:21.868Z,12.37
2018-10-05T22:30:50.116Z,13.20
2018-10-05T22:33:18.454Z,14.17
2018-10-05T22:35:46.871Z,14.27
2018-10-05T22:38:15.186Z,14.30
2018-10-05T22:40:43.607Z,14.03
2018-10-05T22:43:11.889Z,14.27
2018-10-05T22:45:40.187Z,14.80
2018-10-05T22:48:08.469Z,12.73
2018-10-05T22:50:36.897Z,15.33
2018-10-05T22:53:05.278Z,17.57
2018-10-05T22:55:33.649Z,14.13
2018-10-05T22:58:01.963Z,16.57
2018-10-05T23:00:30.445Z,12.33
2018-10-05T23:02:58.713Z,13.73
2018-10-05T23:05:27.045Z,14.97
2018-10-05T23:07:56.048Z,17.13
2018-10-05T23:10:24.364Z,13.73
2018-10-05T23:12:52.716Z,13.30
2018-10-05T23:15:21.072Z,15.40
2018-10-05T23:17:49.468Z,12.87
2018-10-05T23:20:18.340Z,17.03
2018-10-05T23:22:46.777Z,16.27
2018-10-05T23:25:15.049Z,14.33
2018-10-05T23:27:43.290Z,14.70
2018-10-05T23:30:11.634Z,15.13
2018-10-05T23:32:39.869Z,16.67
2018-10-05T23:35:08.234Z,14.83
2018-10-05T23:37:36.657Z,16.77
2018-10-05T23:40:06.734Z,14.80
2018-10-05T23:42:35.097Z,15.30
2018-10-05T23:45:03.425Z,15.10
2018-10-05T23:47:32.748Z,16.00
2018-10-05T23:50:01.033Z,17.47
2018-10-05T23:52:51.670Z,14.90
2018-10-05T23:57:49.873Z,17.23
